Time;durP1;ratioP1;P1;durP2;ratioP2;P2;SDS_P1;SDS_P2;PMS_P1;PMS_P2;Temp;Humidity;BMP_temperature;BMP_pressure;BME280_temperature;BME280_humidity;BME280_pressure;Samples;Min_cycle;Max_cycle;Signal;HPM_P1;HPM_P2
2023/07/30 00:01:19;;;;;;;5.23;4.73;;;20.10;94.10;;;22.56;63.73;100653.13;4995492;28;20398;-61
2023/07/30 00:03:46;;;;;;;6.17;5.30;;;20.10;94.20;;;22.50;63.91;100654.94;4995735;28;20196;-61
2023/07/30 00:06:15;;;;;;;10.20;9.17;;;20.00;94.20;;;22.49;63.89;100661.38;4996067;28;20524;-61
2023/07/30 00:08:42;;;;;;;5.43;4.57;;;20.00;94.30;;;22.47;63.79;100655.44;4997097;28;20202;-60
2023/07/30 00:11:09;;;;;;;5.20;4.70;;;19.90;94.20;;;22.48;63.91;100657.09;4997177;28;20227;-61
2023/07/30 00:13:35;;;;;;;5.73;4.83;;;19.90;94.40;;;22.53;64.28;100659.00;4998504;28;20206;-61
2023/07/30 00:16:03;;;;;;;5.00;4.60;;;19.90;94.70;;;22.59;64.62;100653.41;4995140;28;20199;-63
2023/07/30 00:18:30;;;;;;;8.07;7.23;;;19.90;95.20;;;22.67;64.32;100660.22;4994937;28;20287;-61
2023/07/30 00:20:57;;;;;;;6.17;5.43;;;20.00;94.90;;;22.74;64.09;100664.31;4995646;28;20681;-59
2023/07/30 00:23:25;;;;;;;5.20;3.63;;;20.00;94.90;;;22.80;63.94;100660.59;4995142;28;20283;-61
2023/07/30 00:25:52;;;;;;;5.17;4.73;;;20.00;94.90;;;22.86;64.22;100664.94;4994989;28;20291;-61
2023/07/30 00:28:19;;;;;;;4.53;4.13;;;20.10;94.80;;;22.92;64.08;100662.31;4994890;28;20263;-61
2023/07/30 00:30:46;;;;;;;8.60;4.90;;;20.10;94.80;;;22.95;63.69;100667.16;4994056;28;20218;-61
2023/07/30 00:33:13;;;;;;;8.60;6.07;;;20.10;94.60;;;22.98;63.57;100659.41;4994604;28;20223;-61
2023/07/30 00:35:40;;;;;;;5.60;5.20;;;20.10;94.50;;;23.00;63.23;100659.13;4995008;28;20283;-60
2023/07/30 00:38:07;;;;;;;6.23;5.63;;;20.20;94.50;;;23.01;63.22;100658.06;4994851;28;20202;-61
2023/07/30 00:40:44;;;;;;;6.30;5.70;;;20.20;94.40;;;22.89;62.20;100663.63;4994532;28;20291;-61
2023/07/30 00:43:11;;;;;;;5.13;4.63;;;20.20;93.50;;;22.79;61.93;100669.72;4994755;28;20648;-60
2023/07/30 00:45:42;;;;;;;8.57;7.57;;;20.20;93.40;;;22.73;62.12;100661.88;5011186;28;20691;-61
2023/07/30 00:48:10;;;;;;;8.47;4.80;;;20.10;93.30;;;22.66;62.25;100659.41;5014657;28;20195;-61
2023/07/30 00:50:40;;;;;;;4.60;4.20;;;20.10;93.30;;;22.63;62.85;100659.91;5013414;28;20295;-61
2023/07/30 00:53:11;;;;;;;4.73;4.03;;;20.10;93.60;;;22.65;62.98;100665.03;4996177;28;20204;-61
2023/07/30 00:55:38;;;;;;;5.07;4.40;;;20.00;93.80;;;22.62;62.85;100662.84;5009956;28;20266;-61
2023/07/30 00:58:07;;;;;;;4.53;4.13;;;20.00;93.80;;;22.64;62.99;100666.91;5004674;28;20191;-61
2023/07/30 01:00:34;;;;;;;7.70;5.90;;;20.00;93.90;;;22.67;62.97;100671.78;4994392;28;20286;-60
2023/07/30 01:03:02;;;;;;;5.70;4.30;;;20.00;93.90;;;22.69;63.14;100669.63;4994529;28;20215;-60
2023/07/30 01:05:29;;;;;;;4.60;4.07;;;20.00;94.00;;;22.72;63.04;100663.78;4994756;28;20200;-61
2023/07/30 01:07:56;;;;;;;6.43;4.60;;;20.00;94.00;;;22.76;63.08;100670.22;4993628;28;20275;-59
2023/07/30 01:10:25;;;;;;;4.20;3.80;;;20.00;94.00;;;22.80;62.77;100676.69;4994176;28;20302;-61
2023/07/30 01:12:52;;;;;;;5.37;4.43;;;20.00;94.00;;;22.82;62.65;100673.78;4993465;28;20283;-59
2023/07/30 01:15:21;;;;;;;9.07;5.77;;;20.00;93.90;;;22.81;62.16;100672.97;4994309;28;20231;-59
2023/07/30 01:17:48;;;;;;;6.57;4.70;;;20.00;93.50;;;22.76;62.11;100680.97;4994543;28;20223;-61
2023/07/30 01:20:15;;;;;;;6.90;5.17;;;20.10;93.60;;;22.68;61.96;100683.28;4993754;28;20230;-59
2023/07/30 01:22:43;;;;;;;6.97;5.33;;;20.00;93.10;;;22.62;62.09;100682.47;4994008;28;20291;-60
2023/07/30 01:25:11;;;;;;;7.13;4.77;;;20.00;93.20;;;22.55;62.08;100678.34;4992809;28;20253;-61
2023/07/30 01:27:44;;;;;;;4.93;4.10;;;20.00;93.30;;;22.51;62.45;100683.38;4993883;28;20610;-61
2023/07/30 01:30:18;;;;;;;5.93;4.60;;;19.90;93.30;;;22.51;63.01;100685.28;4993667;28;20291;-61
2023/07/30 01:32:50;;;;;;;6.83;4.23;;;19.90;93.70;;;22.56;63.01;100675.38;4993740;28;20172;-59
2023/07/30 01:35:22;;;;;;;4.90;4.40;;;19.90;93.90;;;22.58;62.87;100683.19;4992692;28;20195;-60
2023/07/30 01:37:51;;;;;;;6.13;3.93;;;19.90;93.70;;;22.60;62.69;100676.50;4993949;28;20206;-64
2023/07/30 01:40:19;;;;;;;5.93;5.30;;;19.90;93.80;;;22.61;62.41;100678.16;4993585;28;20631;-61
2023/07/30 01:42:46;;;;;;;5.63;4.33;;;19.90;93.70;;;22.61;62.47;100688.88;4993548;28;20224;-59
2023/07/30 01:45:13;;;;;;;5.20;4.70;;;19.90;93.70;;;22.58;62.33;100688.56;5006221;28;20207;-61
2023/07/30 01:47:40;;;;;;;15.17;11.20;;;19.90;93.60;;;22.57;62.00;100687.75;5013475;28;20205;-61
2023/07/30 01:50:08;;;;;;;6.40;4.27;;;19.90;93.30;;;22.52;62.00;100686.88;5012752;28;20653;-58
2023/07/30 01:52:35;;;;;;;6.43;4.47;;;19.90;93.40;;;22.52;62.55;100686.88;4999746;28;20199;-62
2023/07/30 01:55:05;;;;;;;6.93;6.27;;;19.80;93.40;;;22.54;62.24;100688.25;5004258;28;20199;-61
2023/07/30 01:57:32;;;;;;;6.77;5.47;;;19.80;93.50;;;22.50;62.21;100687.16;5007770;28;20723;-60
2023/07/30 01:59:59;;;;;;;6.67;4.00;;;19.80;93.40;;;22.47;62.33;100690.31;4993868;28;20271;-61
2023/07/30 02:02:26;;;;;;;8.93;6.13;;;19.80;93.40;;;22.46;61.50;100694.09;4994437;28;20216;-61
2023/07/30 02:04:53;;;;;;;6.27;4.37;;;19.80;93.20;;;22.41;61.81;100693.22;4993782;28;20200;-60
2023/07/30 02:07:20;;;;;;;6.63;5.33;;;19.80;93.20;;;22.32;61.40;100694.75;4993618;28;20196;-61
2023/07/30 02:09:47;;;;;;;7.37;4.53;;;19.70;92.90;;;22.23;61.38;100694.38;4993031;28;20242;-60
2023/07/30 02:12:16;;;;;;;8.07;5.13;;;19.60;92.70;;;22.14;61.46;100695.88;4992331;28;20219;-61
2023/07/30 02:14:43;;;;;;;7.93;5.87;;;19.60;93.00;;;22.01;61.67;100689.03;4993928;28;20614;-59
2023/07/30 02:17:10;;;;;;;5.10;4.60;;;19.50;92.60;;;21.97;61.88;100692.47;4993745;28;20230;-59
2023/07/30 02:19:37;;;;;;;6.73;5.27;;;19.50;92.90;;;21.96;62.04;100690.84;4991720;28;20689;-61
2023/07/30 02:22:04;;;;;;;5.00;4.50;;;19.40;93.00;;;21.98;62.50;100694.09;4993150;28;20278;-60
2023/07/30 02:24:31;;;;;;;5.03;3.90;;;19.40;93.30;;;22.00;62.75;100697.31;4993427;28;20262;-61
2023/07/30 02:26:58;;;;;;;6.77;5.93;;;19.40;93.50;;;22.02;61.84;100700.56;4993634;28;20251;-60
2023/07/30 02:29:28;;;;;;;5.93;5.03;;;19.40;93.00;;;21.98;61.75;100704.81;4993078;28;20218;-61
2023/07/30 02:31:55;;;;;;;5.40;4.90;;;19.40;93.00;;;21.94;61.97;100706.38;4993345;28;20283;-59
2023/07/30 02:34:22;;;;;;;9.43;5.50;;;19.40;92.90;;;21.90;62.04;100708.75;4993897;28;20619;-61
2023/07/30 02:36:49;;;;;;;5.17;4.67;;;19.30;92.90;;;21.86;62.00;100704.13;4993523;28;20223;-61
2023/07/30 02:39:16;;;;;;;6.67;5.03;;;19.30;92.80;;;21.82;62.00;100705.66;4992877;28;20707;-59
2023/07/30 02:41:43;;;;;;;5.20;4.70;;;19.30;93.00;;;21.77;61.56;100705.59;5011702;28;20279;-60
2023/07/30 02:44:10;;;;;;;6.13;5.10;;;19.20;92.90;;;21.78;62.36;100701.84;5008548;28;20234;-61
2023/07/30 02:46:38;;;;;;;4.53;3.67;;;19.20;93.20;;;21.80;62.34;100708.56;4993264;28;20203;-60
2023/07/30 02:49:05;;;;;;;9.47;6.33;;;19.20;93.50;;;21.86;63.07;100714.84;4992768;28;20236;-59
2023/07/30 02:51:32;;;;;;;5.10;4.40;;;19.20;93.50;;;21.88;62.54;100710.03;4997861;28;20203;-58
2023/07/30 02:54:05;;;;;;;7.07;4.70;;;19.20;93.60;;;21.84;61.92;100709.75;5011121;28;20684;-60
2023/07/30 02:56:32;;;;;;;9.03;5.40;;;19.20;93.20;;;21.81;61.82;100706.72;4997276;28;20490;-60
2023/07/30 02:58:59;;;;;;;7.07;4.87;;;19.20;93.20;;;21.77;62.34;100708.28;4996478;28;20279;-60
2023/07/30 03:01:26;;;;;;;8.60;5.97;;;19.10;93.20;;;21.72;62.14;100709.03;4996888;28;20552;-59
2023/07/30 03:03:55;;;;;;;6.07;5.13;;;19.10;93.10;;;21.68;62.05;100705.19;4996840;28;20215;-59
2023/07/30 03:06:22;;;;;;;7.07;5.47;;;19.10;93.10;;;21.62;62.46;100716.09;4996573;28;20191;-59
2023/07/30 03:08:49;;;;;;;6.57;5.60;;;19.10;93.10;;;21.57;62.28;100714.97;4996450;28;20493;-59
2023/07/30 03:11:16;;;;;;;8.40;5.00;;;19.00;93.00;;;21.52;62.25;100706.06;4996978;28;20234;-61
2023/07/30 03:13:43;;;;;;;6.57;4.90;;;19.00;93.00;;;21.46;62.10;100710.56;4997057;28;20226;-61
2023/07/30 03:16:10;;;;;;;6.60;5.70;;;18.90;93.00;;;21.42;62.15;100709.41;4997086;28;20199;-61
2023/07/30 03:18:37;;;;;;;6.87;4.93;;;18.90;93.10;;;21.42;62.40;100712.09;4996825;28;20242;-60
2023/07/30 03:21:05;;;;;;;6.50;5.50;;;18.80;93.30;;;21.43;62.91;100711.03;4996472;28;20219;-59
2023/07/30 03:23:32;;;;;;;8.30;6.10;;;18.80;93.30;;;21.46;62.73;100707.06;4996073;28;20677;-59
2023/07/30 03:26:00;;;;;;;9.03;6.27;;;18.80;93.50;;;21.49;62.96;100711.91;4995841;28;20227;-61
2023/07/30 03:28:27;;;;;;;10.17;6.80;;;18.80;93.50;;;21.49;62.92;100718.06;4995853;28;20227;-60
2023/07/30 03:30:54;;;;;;;8.40;5.63;;;18.80;93.60;;;21.50;62.99;100714.34;4995925;28;20208;-60
2023/07/30 03:33:21;;;;;;;8.00;5.90;;;18.80;93.60;;;21.52;63.14;100714.91;4996020;28;20188;-58
2023/07/30 03:35:48;;;;;;;8.03;5.93;;;18.80;93.70;;;21.51;63.07;100715.16;4996348;28;20202;-61
2023/07/30 03:38:16;;;;;;;10.00;6.40;;;18.80;93.60;;;21.44;62.68;100720.69;4996379;28;20188;-60
2023/07/30 03:40:43;;;;;;;8.03;6.40;;;18.80;93.20;;;21.43;63.12;100711.03;4996265;28;20306;-60
2023/07/30 03:43:10;;;;;;;5.63;4.20;;;18.80;93.40;;;21.46;63.01;100707.88;5013239;28;20212;-58
2023/07/30 03:45:38;;;;;;;7.00;4.90;;;18.80;93.60;;;21.52;63.46;100714.91;4999443;28;20283;-61
2023/07/30 03:48:05;;;;;;;7.30;4.60;;;18.80;93.80;;;21.59;62.97;100718.22;4995937;28;20278;-62
2023/07/30 03:50:32;;;;;;;8.10;5.00;;;18.90;93.80;;;21.66;62.91;100719.91;4995788;28;20235;-61
2023/07/30 03:52:59;;;;;;;6.67;5.00;;;18.90;93.60;;;21.70;62.78;100723.72;5012702;28;20631;-64
2023/07/30 03:55:28;;;;;;;5.30;4.23;;;18.90;93.60;;;21.74;62.55;100722.97;5001773;28;20228;-60
2023/07/30 03:57:55;;;;;;;7.53;4.93;;;19.00;93.60;;;21.73;62.44;100712.53;4995412;28;20645;-63
2023/07/30 04:00:22;;;;;;;4.93;4.33;;;19.00;93.40;;;21.74;61.84;100722.16;4995559;28;20310;-61
2023/07/30 04:02:49;;;;;;;5.70;3.83;;;19.00;93.30;;;21.74;62.39;100714.94;4994545;28;20207;-59
2023/07/30 04:05:16;;;;;;;6.70;4.47;;;19.00;93.40;;;21.73;61.40;100725.91;4995658;28;20219;-60
2023/07/30 04:07:43;;;;;;;6.97;4.40;;;19.00;92.90;;;21.76;62.33;100725.41;4996022;28;20280;-60
2023/07/30 04:10:10;;;;;;;8.73;4.47;;;19.10;93.10;;;21.75;61.55;100729.94;4995377;28;20220;-59
2023/07/30 04:12:39;;;;;;;5.47;3.43;;;19.10;92.80;;;21.75;61.69;100729.16;4995506;28;20274;-63
2023/07/30 04:15:07;;;;;;;5.90;3.10;;;19.10;92.80;;;21.78;61.85;100731.31;4995444;28;20199;-60
2023/07/30 04:17:35;;;;;;;7.67;4.43;;;19.10;93.00;;;21.76;61.00;100728.91;4995228;28;20286;-61
2023/07/30 04:20:04;;;;;;;9.13;4.83;;;19.10;92.30;;;21.73;60.67;100733.97;4995315;28;20227;-60
2023/07/30 04:22:32;;;;;;;6.50;3.90;;;19.10;92.20;;;21.70;61.13;100731.75;4995614;28;20210;-60
2023/07/30 04:24:58;;;;;;;8.10;4.30;;;19.10;92.40;;;21.68;61.05;100731.22;4995486;28;20222;-60
2023/07/30 04:27:26;;;;;;;10.97;4.37;;;19.10;92.40;;;21.65;61.10;100731.69;4995443;28;20196;-60
2023/07/30 04:29:58;;;;;;;7.33;4.17;;;19.00;92.10;;;21.59;60.50;100736.16;4995072;28;20215;-60
2023/07/30 04:32:25;;;;;;;6.77;3.63;;;19.00;92.10;;;21.51;60.19;100732.03;4995239;28;20619;-60
2023/07/30 04:34:52;;;;;;;8.67;3.90;;;19.00;91.80;;;21.42;59.79;100730.84;4994893;28;20275;-62
2023/07/30 04:37:19;;;;;;;9.53;4.00;;;18.90;91.70;;;21.40;60.13;100730.28;4995144;28;20270;-60
2023/07/30 04:39:47;;;;;;;7.23;3.40;;;18.90;91.90;;;21.38;60.54;100732.38;4994642;28;20243;-60
2023/07/30 04:42:15;;;;;;;8.00;3.30;;;18.80;91.80;;;21.35;59.85;100727.50;5000291;28;20712;-60
2023/07/30 04:44:42;;;;;;;6.03;3.33;;;18.80;91.70;;;21.29;60.66;100733.88;5003608;28;20211;-61
2023/07/30 04:47:10;;;;;;;5.47;3.30;;;18.70;91.90;;;21.28;59.98;100726.06;5014571;28;20202;-59
2023/07/30 04:49:40;;;;;;;8.33;3.70;;;18.70;91.70;;;21.28;60.74;100732.22;5013977;28;20284;-60
2023/07/30 04:52:08;;;;;;;6.53;3.60;;;18.70;91.90;;;21.31;60.42;100737.09;5004627;28;20212;-59
2023/07/30 04:54:38;;;;;;;4.83;3.10;;;18.70;91.90;;;21.32;60.73;100736.03;5002379;28;20708;-62
2023/07/30 04:57:06;;;;;;;6.23;2.63;;;18.70;92.00;;;21.37;61.41;100725.41;5013300;28;20632;-59
2023/07/30 04:59:36;;;;;;;5.77;3.10;;;18.70;92.30;;;21.44;61.02;100725.25;5013977;28;20215;-62
2023/07/30 05:02:03;;;;;;;5.00;2.87;;;18.70;92.30;;;21.54;61.36;100730.72;5014238;28;20698;-62
2023/07/30 05:04:32;;;;;;;7.53;3.53;;;18.70;92.50;;;21.57;60.35;100725.69;5014245;28;20215;-62
2023/07/30 05:06:59;;;;;;;6.80;3.43;;;18.80;92.30;;;21.61;60.45;100735.94;4996716;28;20675;-62
2023/07/30 05:09:26;;;;;;;5.37;3.23;;;18.80;92.20;;;21.61;60.27;100735.94;4993290;28;20247;-61
2023/07/30 05:11:53;;;;;;;3.77;2.93;;;18.80;92.00;;;21.61;60.23;100730.56;4994519;28;20199;-62
2023/07/30 05:14:20;;;;;;;10.57;3.13;;;18.80;91.70;;;21.62;60.63;100737.53;4994791;28;20719;-60
2023/07/30 05:16:47;;;;;;;5.67;2.83;;;18.80;91.90;;;21.59;59.93;100742.34;4994249;28;20202;-59
2023/07/30 05:19:15;;;;;;;5.60;2.93;;;18.80;92.00;;;21.62;60.56;100735.69;4993950;28;20637;-61
2023/07/30 05:21:43;;;;;;;5.23;2.63;;;18.80;92.10;;;21.66;60.45;100738.66;4994581;28;20196;-62
2023/07/30 05:24:10;;;;;;;4.97;3.23;;;18.80;92.00;;;21.72;60.47;100738.50;4994170;28;20216;-61
2023/07/30 05:26:37;;;;;;;8.57;3.50;;;18.90;92.20;;;21.73;59.88;100733.97;4994440;28;20598;-60
2023/07/30 05:29:04;;;;;;;8.43;3.17;;;18.90;91.80;;;21.73;59.78;100745.47;4993870;28;20271;-62
2023/07/30 05:31:31;;;;;;;6.83;3.03;;;18.90;91.80;;;21.78;59.93;100737.50;4993472;28;20286;-62
2023/07/30 05:33:58;;;;;;;5.27;3.33;;;19.00;91.80;;;21.82;60.05;100748.53;4994027;28;20192;-62
2023/07/30 05:36:25;;;;;;;9.67;3.77;;;19.00;91.90;;;21.82;59.34;100741.28;4994296;28;20303;-60
2023/07/30 05:38:54;;;;;;;8.57;3.80;;;19.00;91.50;;;21.85;58.35;100737.34;4993567;28;20609;-60
2023/07/30 05:41:21;;;;;;;8.23;3.47;;;19.00;90.90;;;21.85;58.95;100737.34;4996408;28;20271;-62
2023/07/30 05:43:51;;;;;;;6.83;3.50;;;19.10;91.10;;;21.94;58.67;100735.88;5012051;28;20248;-60
2023/07/30 05:46:18;;;;;;;6.23;3.50;;;19.10;91.10;;;22.03;59.18;100735.19;4994017;28;20184;-60
2023/07/30 05:48:45;;;;;;;6.37;3.20;;;19.20;91.40;;;22.00;57.47;100729.50;4993219;28;20203;-62
2023/07/30 05:51:12;;;;;;;6.80;3.40;;;19.20;90.70;;;22.03;58.58;100734.38;4995768;28;20262;-61
2023/07/30 05:53:39;;;;;;;8.17;3.67;;;19.30;90.90;;;22.11;58.38;100741.97;5013535;28;20237;-62
2023/07/30 05:56:07;;;;;;;4.00;2.60;;;19.30;91.10;;;22.12;59.12;100739.03;4993870;28;20275;-60
2023/07/30 05:58:34;;;;;;;8.40;3.57;;;19.30;91.20;;;22.13;58.53;100739.88;4993356;28;20202;-61
2023/07/30 06:01:01;;;;;;;9.67;3.40;;;19.30;91.10;;;22.12;58.30;100735.53;4993337;28;20311;-62
2023/07/30 06:03:28;;;;;;;7.17;3.63;;;19.30;91.00;;;22.11;58.51;100731.22;4993706;28;20326;-62
2023/07/30 06:05:55;;;;;;;7.80;4.37;;;19.30;91.00;;;22.10;57.92;100729.63;4993678;28;20660;-62
2023/07/30 06:08:23;;;;;;;9.40;3.77;;;19.30;90.70;;;22.10;58.75;100724.25;4993868;28;20235;-61
2023/07/30 06:10:50;;;;;;;7.83;4.13;;;19.30;90.90;;;21.97;57.21;100724.63;4993609;28;20250;-60
2023/07/30 06:13:18;;;;;;;6.63;4.00;;;19.30;90.10;;;21.89;57.90;100728.56;4993683;28;20278;-62
2023/07/30 06:15:46;;;;;;;6.53;3.30;;;19.30;90.20;;;21.94;58.59;100727.81;4992809;28;20610;-57
2023/07/30 06:18:13;;;;;;;5.87;3.17;;;19.30;90.60;;;22.00;58.87;100730.31;4993768;28;20549;-58
2023/07/30 06:20:40;;;;;;;6.90;3.57;;;19.30;90.90;;;22.11;58.35;100736.59;4993305;28;20692;-61
2023/07/30 06:23:07;;;;;;;9.97;4.17;;;19.30;90.90;;;22.00;57.55;100729.50;4993632;28;20275;-59
2023/07/30 06:25:34;;;;;;;9.73;3.80;;;19.30;90.50;;;22.04;58.74;100719.88;4993416;28;20212;-67
2023/07/30 06:28:01;;;;;;;8.43;3.43;;;19.40;90.90;;;22.15;58.43;100719.78;4993659;28;20680;-62
2023/07/30 06:30:30;;;;;;;9.27;4.10;;;19.40;91.20;;;22.29;58.96;100722.06;4995331;28;20684;-60
2023/07/30 06:32:57;;;;;;;9.23;4.37;;;19.40;91.30;;;22.38;58.29;100729.41;4997340;28;20275;-58
2023/07/30 06:35:24;;;;;;;10.80;4.03;;;19.50;91.20;;;22.49;58.40;100733.03;4997317;28;20196;-61
2023/07/30 06:37:51;;;;;;;11.00;3.87;;;19.60;91.20;;;22.57;58.51;100733.38;4997336;28;20202;-62
2023/07/30 06:40:18;;;;;;;9.87;4.17;;;19.70;91.50;;;22.67;58.46;100730.81;4996661;28;20211;-61
2023/07/30 06:42:45;;;;;;;7.87;4.53;;;19.80;91.30;;;22.69;57.63;100736.75;4997131;28;20744;-61
2023/07/30 06:45:12;;;;;;;6.43;3.80;;;19.80;90.90;;;22.63;57.30;100737.72;5009436;28;20215;-61
2023/07/30 06:47:40;;;;;;;12.53;4.70;;;19.90;90.50;;;22.62;57.30;100740.69;5016566;28;20624;-59
2023/07/30 06:50:08;;;;;;;13.70;4.80;;;19.90;90.30;;;22.66;57.31;100741.78;5015878;28;20211;-59
2023/07/30 06:52:35;;;;;;;11.37;4.70;;;19.90;90.30;;;22.54;57.44;100739.22;5002954;28;20294;-59
2023/07/30 06:55:03;;;;;;;9.37;4.27;;;20.00;90.20;;;22.71;57.49;100737.28;4996828;28;20254;-62
2023/07/30 06:57:30;;;;;;;9.87;4.73;;;20.00;90.20;;;22.83;57.73;100739.81;4996229;28;20195;-62
2023/07/30 06:59:58;;;;;;;10.40;4.93;;;20.10;90.40;;;22.76;57.14;100748.06;4996429;28;20208;-61
2023/07/30 07:02:25;;;;;;;10.47;4.93;;;20.10;90.00;;;22.82;56.90;100749.72;4996239;28;20274;-61
2023/07/30 07:04:54;;;;;;;11.33;4.77;;;20.20;89.80;;;22.86;56.67;100756.22;4996221;28;20211;-64
2023/07/30 07:07:21;;;;;;;9.87;4.53;;;20.20;89.80;;;22.94;56.57;100756.84;4996974;28;20255;-60
2023/07/30 07:09:48;;;;;;;10.33;4.47;;;20.30;89.80;;;23.01;56.57;100757.44;4996442;28;20287;-60
2023/07/30 07:12:15;;;;;;;13.07;4.87;;;20.30;89.80;;;23.13;56.63;100758.06;4995773;28;20274;-60
2023/07/30 07:14:43;;;;;;;10.40;4.57;;;20.40;90.00;;;23.22;57.13;100764.59;4996732;28;20188;-60
2023/07/30 07:17:10;;;;;;;10.83;4.23;;;20.50;90.30;;;23.31;56.91;100763.03;4995244;28;20215;-63
2023/07/30 07:19:37;;;;;;;10.50;4.20;;;20.50;90.30;;;23.42;57.12;100759.38;4996120;28;20676;-59
2023/07/30 07:22:06;;;;;;;9.60;4.10;;;20.60;90.50;;;23.53;57.33;100761.88;4996546;28;20332;-60
2023/07/30 07:24:33;;;;;;;7.53;3.97;;;20.60;90.60;;;23.63;57.31;100763.03;4996535;28;20251;-62
2023/07/30 07:27:00;;;;;;;9.37;4.33;;;20.70;90.60;;;23.70;56.66;100761.69;4995940;28;20286;-59
2023/07/30 07:29:27;;;;;;;12.70;4.47;;;20.70;90.50;;;23.78;56.57;100765.78;4995935;28;20238;-62
2023/07/30 07:31:55;;;;;;;13.17;5.07;;;20.80;90.40;;;23.81;56.28;100768.78;4996200;28;20619;-61
2023/07/30 07:34:22;;;;;;;9.50;4.57;;;20.80;89.80;;;23.86;56.57;100776.88;4996131;28;20195;-61
2023/07/30 07:36:49;;;;;;;7.33;4.37;;;20.90;90.30;;;23.98;56.36;100768.59;4996066;28;20275;-59
2023/07/30 07:39:18;;;;;;;20.13;5.40;;;20.90;90.30;;;24.08;54.67;100780.22;4995556;28;20212;-59
2023/07/30 07:41:45;;;;;;;10.80;4.70;;;21.00;88.70;;;24.19;55.07;100775.69;5000765;28;20184;-60
2023/07/30 07:44:12;;;;;;;9.13;4.90;;;21.10;88.90;;;24.33;55.19;100770.63;5011096;28;20211;-61
2023/07/30 07:46:39;;;;;;;12.07;4.97;;;21.20;89.90;;;24.41;53.43;100767.44;4995855;28;20191;-61
2023/07/30 07:49:08;;;;;;;10.40;4.47;;;21.20;87.30;;;24.51;54.68;100776.34;4996003;28;20187;-61
2023/07/30 07:51:35;;;;;;;10.07;4.83;;;21.40;88.30;;;24.35;52.24;100776.56;5000795;28;20203;-60
2023/07/30 07:54:03;;;;;;;7.80;3.77;;;21.40;85.20;;;24.38;53.51;100779.53;5014649;28;20211;-61
2023/07/30 07:56:31;;;;;;;7.63;3.27;;;21.50;86.40;;;24.53;54.25;100781.47;5014877;28;20270;-59
2023/07/30 07:58:59;;;;;;;9.07;3.97;;;21.60;87.00;;;24.78;53.53;100774.28;4997532;28;20196;-59
2023/07/30 08:01:26;;;;;;;9.23;3.70;;;21.70;87.30;;;25.12;53.86;100773.75;4995602;28;20291;-61
2023/07/30 08:03:53;;;;;;;12.43;3.83;;;21.80;87.90;;;25.18;51.26;100775.38;4995384;28;20223;-62
2023/07/30 08:06:20;;;;;;;8.73;4.40;;;21.90;84.30;;;25.21;50.86;100778.34;4995351;28;20243;-62
2023/07/30 08:08:47;;;;;;;8.13;3.77;;;22.10;83.60;;;25.22;50.07;100779.94;4995452;28;20199;-61
2023/07/30 08:11:14;;;;;;;9.30;4.20;;;22.20;82.80;;;25.21;51.53;100782.91;4995445;28;20211;-62
2023/07/30 08:13:42;;;;;;;10.63;4.10;;;22.20;83.40;;;25.03;49.18;100797.72;4995290;28;20598;-61
2023/07/30 08:16:09;;;;;;;7.07;3.40;;;22.20;80.60;;;25.07;50.53;100788.03;4995285;28;20188;-60
2023/07/30 08:18:37;;;;;;;9.80;3.87;;;22.20;81.90;;;25.17;50.82;100792.63;4994880;28;20246;-60
2023/07/30 08:21:04;;;;;;;7.60;3.43;;;22.20;82.10;;;25.23;51.19;100788.84;4995707;28;20261;-61
2023/07/30 08:23:31;;;;;;;9.00;3.80;;;22.30;82.50;;;25.29;50.30;100790.47;4994453;28;20195;-60
2023/07/30 08:25:58;;;;;;;9.57;3.50;;;22.30;82.00;;;25.35;50.57;100784.81;4995448;28;20294;-61
2023/07/30 08:28:25;;;;;;;8.53;4.17;;;22.30;81.60;;;25.37;49.59;100777.25;4995086;28;20271;-62
2023/07/30 08:30:59;;;;;;;5.97;3.07;;;22.30;80.70;;;25.32;50.16;100785.34;4995209;28;20262;-61
2023/07/30 08:33:27;;;;;;;6.17;2.93;;;22.30;81.30;;;25.33;50.36;100786.97;4994018;28;20274;-59
2023/07/30 08:35:55;;;;;;;6.70;4.07;;;22.30;81.90;;;25.32;50.80;100789.91;4995347;28;20184;-59
2023/07/30 08:38:22;;;;;;;8.83;3.77;;;22.30;81.80;;;25.29;50.41;100785.88;4994491;28;20200;-62
2023/07/30 08:40:50;;;;;;;6.00;4.03;;;22.30;81.80;;;25.20;49.51;100786.72;4994597;28;20208;-61
2023/07/30 08:43:19;;;;;;;9.37;3.97;;;22.20;80.60;;;25.22;51.12;100779.94;5012540;28;20203;-62
2023/07/30 08:45:46;;;;;;;11.60;4.60;;;22.30;81.80;;;25.18;49.90;100778.06;4997169;28;20215;-60
2023/07/30 08:48:14;;;;;;;12.13;4.20;;;22.30;81.10;;;25.15;50.55;100786.72;4993455;28;20203;-63
2023/07/30 08:50:43;;;;;;;8.03;4.30;;;22.30;81.20;;;25.07;50.23;100782.66;4994504;28;20595;-62
2023/07/30 08:53:12;;;;;;;10.23;4.47;;;22.20;81.50;;;25.07;50.55;100782.66;5012311;28;20226;-62
2023/07/30 08:55:41;;;;;;;10.30;3.97;;;22.20;81.70;;;25.14;50.82;100783.19;4998372;28;20188;-61
2023/07/30 08:58:11;;;;;;;8.50;4.27;;;22.20;82.70;;;25.13;51.15;100786.97;4994245;28;20539;-62
2023/07/30 09:00:41;;;;;;;9.27;4.07;;;22.20;82.10;;;25.16;50.86;100781.03;4994267;28;20212;-62
2023/07/30 09:03:10;;;;;;;6.53;3.73;;;22.20;82.70;;;25.23;51.15;100776.19;4994397;28;20192;-61
2023/07/30 09:05:39;;;;;;;7.37;4.77;;;22.20;82.40;;;25.31;51.22;100778.34;4994461;28;20215;-61
2023/07/30 09:08:08;;;;;;;6.67;3.87;;;22.20;82.80;;;25.45;50.57;100768.66;4994509;28;20206;-61
2023/07/30 09:10:35;;;;;;;6.50;3.93;;;22.30;82.60;;;25.68;50.65;100777.22;4994179;28;20219;-60
2023/07/30 09:13:03;;;;;;;10.40;4.40;;;22.30;83.30;;;25.85;49.70;100775.03;4994423;28;20279;-61
2023/07/30 09:15:32;;;;;;;8.10;4.03;;;22.50;82.30;;;25.90;49.26;100778.53;4994778;28;20192;-59
2023/07/30 09:17:59;;;;;;;10.40;4.17;;;22.60;82.00;;;25.97;49.90;100791.72;4994351;28;20251;-60
2023/07/30 09:20:27;;;;;;;12.47;4.63;;;22.70;82.20;;;26.00;49.51;100783.09;4989799;28;20224;-61
2023/07/30 09:22:58;;;;;;;9.47;4.93;;;22.80;81.40;;;26.01;49.63;100782.00;4974821;28;20195;-61
2023/07/30 09:25:25;;;;;;;8.13;4.20;;;22.80;81.00;;;25.98;48.96;100787.97;4974896;28;20219;-62
2023/07/30 09:27:53;;;;;;;9.77;4.23;;;22.80;80.10;;;25.71;48.38;100782.09;4974261;28;20273;-60
2023/07/30 09:30:24;;;;;;;9.77;4.20;;;22.80;79.10;;;25.66;49.08;100790.19;4974495;28;20209;-60
2023/07/30 09:32:54;;;;;;;11.93;4.70;;;22.80;79.80;;;25.61;49.19;100792.88;4973476;28;20196;-61
2023/07/30 09:35:24;;;;;;;9.17;4.17;;;22.70;79.80;;;25.57;49.59;100794.53;4974881;28;20192;-61
2023/07/30 09:38:00;;;;;;;10.17;4.43;;;22.70;80.50;;;25.59;50.23;100792.34;4974637;28;20212;-61
2023/07/30 09:40:35;;;;;;;10.83;4.40;;;22.70;80.80;;;25.63;49.40;100801.50;4974062;28;20274;-62
2023/07/30 09:43:03;;;;;;;12.73;4.87;;;22.70;80.50;;;25.69;49.57;100800.44;5005939;28;20273;-61
2023/07/30 09:45:35;;;;;;;10.17;5.23;;;22.70;80.80;;;25.58;49.43;100796.94;4998549;28;20625;-59
2023/07/30 09:48:05;;;;;;;14.00;5.03;;;22.60;80.00;;;25.55;49.07;100800.19;4993963;28;20675;-61
2023/07/30 09:50:33;;;;;;;7.30;4.30;;;22.70;80.30;;;25.62;49.28;100799.91;4993303;28;20207;-61
2023/07/30 09:53:04;;;;;;;10.43;4.70;;;22.70;80.50;;;25.72;49.64;100813.38;5010540;28;20665;-62
2023/07/30 09:55:32;;;;;;;13.77;5.03;;;22.70;80.80;;;25.81;48.87;100809.03;5011909;28;20217;-61
2023/07/30 09:57:59;;;;;;;6.67;4.20;;;22.70;79.70;;;25.88;49.39;100801.47;5013083;28;20191;-61
2023/07/30 10:00:29;;;;;;;10.97;4.77;;;22.80;80.40;;;25.84;47.78;100811.19;5012759;28;20626;-61
2023/07/30 10:03:01;;;;;;;11.27;4.57;;;22.80;78.50;;;25.84;48.44;100813.91;5011906;28;20180;-61
2023/07/30 10:05:35;;;;;;;11.53;4.60;;;22.90;79.20;;;25.79;47.49;100827.41;5016865;28;20247;-61
2023/07/30 10:08:11;;;;;;;12.13;5.07;;;22.90;77.40;;;25.63;47.13;100812.28;5017552;28;20202;-60
2023/07/30 10:10:38;;;;;;;8.70;4.63;;;22.80;76.00;;;25.64;47.81;100813.91;5015785;28;20254;-60
2023/07/30 10:13:10;;;;;;;10.00;4.80;;;22.90;77.10;;;25.70;47.86;100807.47;5017406;28;20199;-58